Time;durP1;ratioP1;P1;durP2;ratioP2;P2;SDS_P1;SDS_P2;PMS_P1;PMS_P2;Temp;Humidity;BMP_temperature;BMP_pressure;BME280_temperature;BME280_humidity;BME280_pressure;Samples;Min_cycle;Max_cycle;Signal;HPM_P1;HPM_P2
2021/01/30 00:00:11;;;;;;;2.35;1.17;;;;;;;6.62;88.89;97520.75;4931530;29;20068;-70
2021/01/30 00:02:37;;;;;;;2.72;1.40;;;;;;;6.62;88.50;97521.63;4918122;29;20504;-69
2021/01/30 00:05:03;;;;;;;4.93;1.13;;;;;;;6.60;88.78;97522.50;4930509;29;20035;-68
2021/01/30 00:07:28;;;;;;;3.08;1.20;;;;;;;6.63;87.77;97527.59;4921511;29;20031;-75
2021/01/30 00:09:53;;;;;;;3.50;1.50;;;;;;;6.49;88.43;97529.63;4933565;29;20028;-74
2021/01/30 00:12:19;;;;;;;2.65;1.20;;;;;;;6.51;88.01;97544.16;4924449;29;20024;-74
2021/01/30 00:14:44;;;;;;;3.45;1.20;;;;;;;6.53;88.17;97536.41;4927625;29;20052;-74
2021/01/30 00:17:10;;;;;;;2.47;1.40;;;;;;;6.61;87.74;97549.94;4931252;29;20039;-74
2021/01/30 00:19:36;;;;;;;3.13;1.40;;;;;;;6.57;86.99;97543.16;4921149;29;20031;-74
2021/01/30 00:22:06;;;;;;;3.83;1.30;;;;;;;6.57;87.52;97543.16;4931343;29;20028;-73
2021/01/30 00:24:31;;;;;;;2.88;1.45;;;;;;;6.59;87.09;97547.41;4925890;29;20572;-74
2021/01/30 00:26:59;;;;;;;4.10;1.17;;;;;;;6.68;85.73;97534.34;4925173;29;20084;-74
2021/01/30 00:29:27;;;;;;;2.92;1.20;;;;;;;6.68;85.80;97541.22;4933078;29;20033;-74
2021/01/30 00:31:53;;;;;;;5.07;1.30;;;;;;;6.73;85.45;97549.69;4920614;29;20079;-75
2021/01/30 00:34:20;;;;;;;2.58;1.10;;;;;;;6.69;85.19;97542.91;4929876;29;20024;-74
2021/01/30 00:36:59;;;;;;;3.45;1.17;;;;;;;6.71;85.00;97546.28;4927652;29;20068;-75
2021/01/30 00:39:25;;;;;;;2.93;1.30;;;;;;;6.65;85.36;97541.28;4936802;29;20421;-75
2021/01/30 00:41:50;;;;;;;3.78;1.20;;;;;;;6.69;84.00;97535.19;4936294;29;20042;-74
2021/01/30 00:44:16;;;;;;;4.43;1.20;;;;;;;6.68;83.90;97541.22;4936522;29;20031;-75
2021/01/30 00:46:42;;;;;;;5.90;1.70;;;;;;;6.72;83.88;97542.84;4936386;29;20437;-75
2021/01/30 00:49:08;;;;;;;6.90;1.55;;;;;;;6.71;83.86;97541.13;4936589;29;20085;-69
2021/01/30 00:51:33;;;;;;;4.22;1.02;;;;;;;6.81;83.27;97541.75;4936145;29;20086;-69
2021/01/30 00:53:59;;;;;;;4.40;1.23;;;;;;;6.76;82.89;97546.16;4936518;29;20389;-69
2021/01/30 00:56:24;;;;;;;3.63;1.30;;;;;;;6.78;83.66;97547.00;4936387;28;20031;-69
2021/01/30 00:58:50;;;;;;;1.83;1.10;;;;;;;6.75;83.45;97547.91;4936282;29;20027;-69
2021/01/30 08:02:15;;;;;;;8.32;2.55;;;;;;;6.70;78.85;97347.25;5189581;23;20111;-69
2021/01/30 08:04:43;;;;;;;9.10;2.63;;;;;;;6.91;79.27;97340.72;4937389;29;20040;-69
2021/01/30 08:07:40;;;;;;;7.63;2.42;;;;;;;7.32;75.51;97333.56;4937300;29;20453;-69
2021/01/30 08:10:30;;;;;;;15.80;3.08;;;;;;;7.06;77.51;97338.59;4937481;29;20030;-69
2021/01/30 08:13:19;;;;;;;11.93;3.08;;;;;;;7.23;76.33;97338.97;4918972;29;20083;-74
2021/01/30 08:15:45;;;;;;;;;;;;;;;7.40;75.65;97336.78;4918619;29;20020;-75
2021/01/30 08:18:29;;;;;;;62.65;26.17;;;;;;;7.55;75.21;97332.06;4916931;29;19911;-67
2021/01/30 08:21:02;;;;;;;12.52;3.67;;;;;;;7.62;74.91;97324.09;4916662;29;20561;-74
2021/01/30 08:23:51;;;;;;;5.85;1.60;;;;;;;7.58;74.12;97330.22;4918261;29;20463;-68
2021/01/30 08:26:17;;;;;;;8.27;2.17;;;;;;;7.68;73.99;97328.22;4918187;29;20043;-69
2021/01/30 08:28:50;;;;;;;11.57;2.42;;;;;;;7.58;72.92;97329.38;4916763;29;20032;-68
2021/01/30 08:31:35;;;;;;;10.77;2.42;;;;;;;7.81;72.76;97321.81;4917952;29;20124;-74
2021/01/30 08:34:02;;;;;;;6.65;2.05;;;;;;;7.79;72.89;97328.78;4901438;29;20051;-68
2021/01/30 08:36:42;;;;;;;12.35;2.45;;;;;;;7.71;73.69;97325.56;4917873;29;20050;-68
2021/01/30 08:39:23;;;;;;;9.57;2.08;;;;;;;7.50;73.30;97328.78;4917916;29;20070;-69
2021/01/30 08:42:05;;;;;;;11.20;2.35;;;;;;;7.39;73.28;97329.06;4916457;29;20047;-68
2021/01/30 08:44:52;;;;;;;13.95;2.38;;;;;;;7.51;73.17;97328.75;4917798;29;20393;-75
2021/01/30 08:47:26;;;;;;;11.43;2.70;;;;;;;7.52;73.36;97325.25;4917615;29;20127;-69
2021/01/30 08:49:56;;;;;;;13.60;2.22;;;;;;;7.55;73.21;97326.91;4917591;29;20485;-69
2021/01/30 08:52:33;;;;;;;12.63;3.40;;;;;;;7.44;73.61;97328.06;4917104;29;20043;-74
2021/01/30 08:55:24;;;;;;;15.00;2.50;;;;;;;7.43;73.81;97326.38;4917504;29;20116;-69
2021/01/30 08:57:49;;;;;;;11.75;2.10;;;;;;;7.34;75.45;97325.78;4917368;29;20042;-69
2021/01/30 09:00:26;;;;;;;7.47;2.22;;;;;;;7.37;74.68;97323.97;4917216;29;20028;-69
2021/01/30 09:02:58;;;;;;;11.05;2.70;;;;;;;7.51;75.03;97333.06;4917254;29;20034;-73
2021/01/30 09:05:26;;;;;;;17.58;2.80;;;;;;;7.63;73.93;97328.34;4916423;29;20032;-68
2021/01/30 09:07:54;;;;;;;12.40;2.10;;;;;;;7.88;74.50;97322.47;4915971;29;20136;-74
2021/01/30 09:10:22;;;;;;;13.27;2.67;;;;;;;7.78;73.02;97327.06;4917163;29;20497;-68
2021/01/30 09:13:12;;;;;;;14.82;3.97;;;;;;;7.83;74.01;97325.22;4917067;29;20042;-68
2021/01/30 09:15:40;;;;;;;11.68;2.45;;;;;;;7.96;73.66;97315.34;4917241;29;20031;-68
2021/01/30 09:18:38;;;;;;;12.85;3.58;;;;;;;7.98;74.05;97313.56;4917055;29;20103;-68
2021/01/30 09:21:09;;;;;;;9.15;2.50;;;;;;;8.17;72.89;97303.50;4916790;29;20512;-73
2021/01/30 09:23:56;;;;;;;13.05;3.65;;;;;;;8.29;73.51;97303.09;4916706;29;20055;-73
2021/01/30 09:26:24;;;;;;;15.13;3.22;;;;;;;8.22;73.30;97301.63;4917012;29;20027;-74
2021/01/30 09:28:56;;;;;;;16.23;4.65;;;;;;;8.60;71.04;97304.69;4916748;29;20032;-74
2021/01/30 09:31:22;;;;;;;14.18;3.28;;;;;;;8.64;71.32;97303.69;4916667;29;20103;-74
2021/01/30 09:34:07;;;;;;;14.90;3.47;;;;;;;8.64;70.77;97298.53;4916597;29;20501;-74
2021/01/30 09:36:38;;;;;;;14.35;3.33;;;;;;;8.60;71.81;97302.94;4917112;29;20036;-74
2021/01/30 09:39:20;;;;;;;13.00;2.70;;;;;;;8.69;71.42;97299.22;4916729;29;20032;-74
2021/01/30 09:41:45;;;;;;;10.65;3.15;;;;;;;9.10;70.09;97291.78;4916442;29;20032;-74
2021/01/30 09:44:19;;;;;;;25.30;7.20;;;;;;;9.13;70.16;97281.31;4916473;29;20032;-73
2021/01/30 09:46:51;;;;;;;13.70;3.90;;;;;;;8.98;69.74;97287.88;4915225;29;20034;-74
2021/01/30 09:49:27;;;;;;;10.02;2.90;;;;;;;9.01;69.60;97291.19;4919382;29;20031;-74
2021/01/30 09:51:55;;;;;;;9.52;2.22;;;;;;;8.61;69.93;97288.34;4925691;29;20056;-74
2021/01/30 09:54:24;;;;;;;15.10;3.22;;;;;;;8.62;70.86;97290.00;4922323;29;20473;-74
2021/01/30 09:56:53;;;;;;;10.95;2.50;;;;;;;8.81;69.96;97295.38;4926844;29;20027;-74
2021/01/30 09:59:25;;;;;;;17.05;3.33;;;;;;;8.83;70.61;97301.31;4915937;29;20028;-73
2021/01/30 10:01:50;;;;;;;16.95;2.40;;;;;;;8.74;69.57;97295.56;4905029;29;20031;-72
2021/01/30 10:04:27;;;;;;;16.42;2.90;;;;;;;8.59;69.61;97297.84;4927373;29;20062;-73
2021/01/30 10:07:23;;;;;;;12.98;2.70;;;;;;;8.65;69.98;97295.06;4915958;29;20063;-73
2021/01/30 10:09:49;;;;;;;11.10;3.17;;;;;;;8.77;69.03;97294.66;4919294;29;20043;-73
2021/01/30 10:12:17;;;;;;;16.55;2.85;;;;;;;9.02;69.37;97281.69;4927521;29;20040;-73
2021/01/30 10:14:46;;;;;;;14.23;3.13;;;;;;;9.21;68.79;97279.28;4915962;29;20035;-73
2021/01/30 10:17:19;;;;;;;11.68;2.58;;;;;;;9.31;68.42;97280.63;4930710;29;20559;-72
2021/01/30 10:19:44;;;;;;;8.65;2.33;;;;;;;9.50;67.25;97271.28;4903505;29;20035;-73
2021/01/30 10:22:17;;;;;;;12.40;2.03;;;;;;;9.26;68.22;97277.38;4927709;29;20092;-68
2021/01/30 10:24:43;;;;;;;14.38;2.63;;;;;;;9.23;68.86;97270.59;4926781;29;20059;-68
2021/01/30 10:27:19;;;;;;;15.55;2.90;;;;;;;9.32;69.14;97264.22;4920315;29;20110;-68
2021/01/30 10:29:46;;;;;;;42.58;19.27;;;;;;;9.47;67.80;97255.88;4903616;29;20031;-68
2021/01/30 10:32:17;;;;;;;14.65;5.35;;;;;;;9.68;68.39;97258.56;4927254;29;20032;-68
2021/01/30 10:34:56;;;;;;;13.13;2.55;;;;;;;9.31;68.60;97256.53;4926848;29;20087;-68
2021/01/30 10:37:45;;;;;;;11.02;2.85;;;;;;;8.88;71.02;97238.28;4918945;29;20028;-68
2021/01/30 10:40:32;;;;;;;16.40;2.92;;;;;;;8.90;71.26;97243.41;4927578;29;20038;-68
2021/01/30 10:43:05;;;;;;;14.73;3.50;;;;;;;9.08;71.72;97241.88;4916648;29;20032;-68
2021/01/30 10:45:33;;;;;;;9.90;3.55;;;;;;;8.95;71.28;97247.50;4931303;29;20504;-68
2021/01/30 10:48:03;;;;;;;8.82;2.83;;;;;;;8.90;72.12;97243.41;4920601;29;20042;-68
2021/01/30 10:50:32;;;;;;;9.80;3.25;;;;;;;8.74;73.38;97245.69;4917831;29;20119;-73
2021/01/30 10:53:22;;;;;;;15.27;2.80;;;;;;;8.74;73.42;97246.50;4928372;29;20079;-73
2021/01/30 10:55:49;;;;;;;11.48;2.78;;;;;;;8.69;73.44;97239.84;4904285;29;20027;-73
2021/01/30 10:58:19;;;;;;;11.77;2.55;;;;;;;8.71;74.40;97245.81;4927133;29;20028;-74
2021/01/30 11:01:31;;;;;;;11.77;2.95;;;;;;;8.86;73.17;97242.66;4926309;29;20027;-68
2021/01/30 11:04:04;;;;;;;12.60;2.88;;;;;;;8.64;72.72;97241.75;4920727;29;20036;-68
2021/01/30 11:06:36;;;;;;;18.58;3.25;;;;;;;8.68;73.57;97248.47;4928573;29;20040;-68
2021/01/30 11:09:14;;;;;;;15.13;2.60;;;;;;;8.77;74.57;97232.66;4932553;29;20031;-74
2021/01/30 11:11:40;;;;;;;12.07;2.92;;;;;;;8.94;73.67;97237.22;4922070;29;20405;-67
2021/01/30 11:14:24;;;;;;;11.68;2.38;;;;;;;8.62;73.15;97235.81;4931838;29;20032;-68
2021/01/30 11:16:50;;;;;;;12.23;2.60;;;;;;;8.28;74.20;97239.50;4930923;29;20028;-68
2021/01/30 11:19:23;;;;;;;12.05;1.85;;;;;;;8.06;76.04;97238.50;4922641;29;20055;-68
2021/01/30 11:22:02;;;;;;;15.15;2.67;;;;;;;8.12;77.52;97238.31;4917391;29;20417;-68
2021/01/30 11:24:33;;;;;;;9.25;2.58;;;;;;;8.04;78.37;97235.16;4927754;29;20070;-74
2021/01/30 11:26:59;;;;;;;9.07;2.10;;;;;;;8.05;78.10;97234.25;4924832;29;20040;-68
2021/01/30 11:29:43;;;;;;;14.05;4.75;;;;;;;8.12;78.99;97221.13;4934575;29;20035;-68
2021/01/30 11:32:21;;;;;;;14.77;2.92;;;;;;;8.12;79.00;97217.66;4924852;29;20062;-73
2021/01/30 11:34:55;;;;;;;9.80;2.35;;;;;;;8.08;79.38;97210.97;4926207;29;20027;-73
2021/01/30 11:37:22;;;;;;;8.32;1.95;;;;;;;8.13;78.58;97209.91;4934375;29;20066;-73
2021/01/30 11:39:47;;;;;;;13.60;2.22;;;;;;;8.15;78.31;97213.25;4922258;29;20027;-74
2021/01/30 11:42:14;;;;;;;14.45;3.13;;;;;;;8.33;80.65;97205.81;4930133;29;20422;-73
2021/01/30 11:44:39;;;;;;;19.35;6.47;;;;;;;8.29;78.51;97205.06;4918646;29;20178;-73
2021/01/30 11:47:04;;;;;;;35.47;18.08;;;;;;;8.29;79.81;97194.75;4932398;29;20124;-72
2021/01/30 11:49:30;;;;;;;12.15;2.22;;;;;;;8.47;79.98;97194.13;4921784;29;20024;-68
2021/01/30 11:51:55;;;;;;;9.02;1.98;;;;;;;8.48;78.24;97185.50;4932439;29;20031;-72
2021/01/30 11:54:20;;;;;;;10.75;2.67;;;;;;;8.34;77.81;97187.69;4926531;29;20054;-75
2021/01/30 11:56:46;;;;;;;6.90;2.17;;;;;;;8.31;79.29;97176.59;4926078;29;20032;-74
2021/01/30 11:59:12;;;;;;;7.55;2.30;;;;;;;8.26;79.25;97174.19;4933271;29;20072;-73
2021/01/30 12:01:41;;;;;;;11.65;2.47;;;;;;;8.39;76.66;97157.41;4921129;29;20106;-69
2021/01/30 12:04:09;;;;;;;10.02;3.45;;;;;;;8.56;78.05;97150.81;4931388;29;20036;-69
2021/01/30 12:06:35;;;;;;;11.95;2.47;;;;;;;8.75;78.65;97146.66;4928272;29;20028;-68
2021/01/30 12:09:01;;;;;;;6.68;1.92;;;;;;;9.04;77.72;97147.31;4923711;29;20091;-74
2021/01/30 12:11:26;;;;;;;17.40;3.03;;;;;;;9.09;77.17;97145.38;4933704;29;20030;-74
2021/01/30 12:13:52;;;;;;;12.18;4.82;;;;;;;9.15;74.59;97135.66;4921995;29;20031;-74
2021/01/30 12:16:22;;;;;;;8.70;3.53;;;;;;;9.07;76.39;97132.53;4919639;29;20028;-69
2021/01/30 12:18:47;;;;;;;10.55;2.50;;;;;;;9.04;74.87;97126.63;4917955;29;20028;-73
2021/01/30 12:21:12;;;;;;;10.20;1.95;;;;;;;8.70;76.85;97127.91;4931358;29;20039;-69
2021/01/30 12:23:38;;;;;;;9.48;2.30;;;;;;;8.37;78.06;97125.69;4918603;29;20032;-73
2021/01/30 12:26:03;;;;;;;12.25;3.20;;;;;;;8.34;79.09;97128.31;4923704;29;20433;-71
2021/01/30 12:28:32;;;;;;;10.50;2.70;;;;;;;8.10;79.94;97111.13;4927707;29;20028;-72
2021/01/30 12:30:58;;;;;;;9.05;2.05;;;;;;;8.07;79.66;97112.06;4930351;29;20050;-72
2021/01/30 12:33:23;;;;;;;13.00;2.15;;;;;;;8.15;80.34;97114.41;4920912;29;20032;-73
2021/01/30 12:35:49;;;;;;;7.43;2.00;;;;;;;8.22;80.13;97110.72;4932822;29;20052;-69
2021/01/30 12:38:15;;;;;;;10.98;8.50;;;;;;;8.24;80.74;97093.44;4925037;29;20030;-73
2021/01/30 12:40:45;;;;;;;7.93;3.08;;;;;;;8.45;79.50;97095.25;4925558;29;20059;-72
2021/01/30 12:43:12;;;;;;;7.78;2.58;;;;;;;8.47;79.19;97096.06;4918441;29;20036;-74
2021/01/30 12:45:38;;;;;;;12.90;3.55;;;;;;;8.40;79.15;97094.59;4930149;29;20026;-69
2021/01/30 12:48:03;;;;;;;10.85;2.13;;;;;;;8.28;77.24;97089.84;4930228;29;20106;-68
2021/01/30 12:50:30;;;;;;;9.30;1.88;;;;;;;8.09;81.95;97086.25;4927001;29;20088;-68
2021/01/30 12:52:56;;;;;;;5.05;1.70;;;;;;;8.23;80.97;97081.44;4929940;29;20027;-69
2021/01/30 12:55:22;;;;;;;6.38;1.95;;;;;;;8.19;78.18;97079.84;4920582;29;20478;-68
2021/01/30 12:57:47;;;;;;;9.98;2.38;;;;;;;8.16;79.80;97077.38;4936212;29;20442;-68
2021/01/30 13:00:25;;;;;;;7.88;2.13;;;;;;;8.03;78.43;97063.25;4936216;29;20058;-69
2021/01/30 13:02:53;;;;;;;19.27;6.85;;;;;;;8.08;80.37;97061.34;4936268;29;20505;-68
2021/01/30 13:05:19;;;;;;;13.88;3.97;;;;;;;7.87;81.35;97068.94;4936411;29;20035;-68
2021/01/30 13:07:45;;;;;;;5.95;2.20;;;;;;;7.73;81.81;97058.25;4936160;29;20028;-68
2021/01/30 13:10:14;;;;;;;7.72;2.53;;;;;;;7.83;80.64;97057.06;4934924;29;20362;-69
2021/01/30 13:12:40;;;;;;;13.05;3.13;;;;;;;7.74;81.20;97052.22;4936038;29;20031;-69
2021/01/30 13:15:06;;;;;;;7.07;2.10;;;;;;;7.66;82.02;97049.06;4932617;29;20151;-69
2021/01/30 13:17:32;;;;;;;10.00;3.15;;;;;;;7.67;79.65;97043.00;4928011;29;20024;-68
2021/01/30 13:19:57;;;;;;;8.88;2.58;;;;;;;7.55;79.60;97046.84;4936098;29;20036;-69
2021/01/30 13:22:23;;;;;;;9.98;2.13;;;;;;;7.17;79.76;97042.97;4934482;29;20485;-69
2021/01/30 13:24:49;;;;;;;5.55;2.30;;;;;;;7.08;81.87;97045.84;4934775;29;20034;-68
2021/01/30 13:27:16;;;;;;;13.43;4.55;;;;;;;7.18;81.67;97032.59;4935121;29;20039;-69
2021/01/30 13:29:42;;;;;;;8.02;3.05;;;;;;;7.23;80.96;97035.03;4936065;29;20393;-73
2021/01/30 13:32:07;;;;;;;7.85;2.67;;;;;;;7.16;81.87;97034.41;4935622;29;20054;-72
2021/01/30 13:34:34;;;;;;;7.55;3.80;;;;;;;7.07;80.60;97028.72;4935736;29;20023;-72
2021/01/30 13:37:00;;;;;;;13.05;2.65;;;;;;;6.99;83.99;97034.09;4935821;29;20031;-69
2021/01/30 13:39:25;;;;;;;11.13;2.60;;;;;;;6.89;85.32;97030.97;4935676;29;20384;-69
2021/01/30 13:41:50;;;;;;;13.45;4.25;;;;;;;7.07;84.43;97028.72;4935463;29;20147;-68
2021/01/30 13:44:16;;;;;;;9.57;2.33;;;;;;;7.01;84.84;97028.88;4932769;29;20030;-69
2021/01/30 13:46:42;;;;;;;9.70;2.65;;;;;;;6.93;85.42;97022.25;4925534;29;20036;-69
2021/01/30 13:49:07;;;;;;;10.23;3.67;;;;;;;7.00;85.35;97022.06;4935583;29;20122;-69
2021/01/30 13:51:32;;;;;;;9.32;2.83;;;;;;;7.01;83.95;97021.16;4935244;29;20028;-69
2021/01/30 13:53:58;;;;;;;14.25;3.00;;;;;;;6.82;84.86;97018.34;4935455;29;20051;-69
2021/01/30 13:56:24;;;;;;;10.32;2.72;;;;;;;6.80;85.82;97015.81;4935345;29;20494;-69
2021/01/30 13:58:50;;;;;;;9.30;2.78;;;;;;;6.81;86.18;97016.63;4935570;29;20047;-69
2021/01/30 14:01:15;;;;;;;9.70;3.58;;;;;;;6.79;87.34;97016.69;4933595;29;20497;-69
2021/01/30 14:03:40;;;;;;;8.63;4.78;;;;;;;6.68;87.74;97026.50;4935323;29;20024;-69
2021/01/30 14:06:05;;;;;;;15.65;4.72;;;;;;;6.69;89.10;97017.88;4935146;29;20027;-69
2021/01/30 14:08:31;;;;;;;10.55;2.70;;;;;;;6.62;87.89;97017.22;4935076;29;20028;-69
2021/01/30 14:10:56;;;;;;;11.65;2.38;;;;;;;6.48;86.32;97010.78;4934947;29;20063;-69
2021/01/30 14:13:21;;;;;;;17.40;7.80;;;;;;;6.66;88.06;97012.81;4935415;29;20032;-73
2021/01/30 14:15:48;;;;;;;6.65;2.70;;;;;;;6.47;84.56;97009.13;4929542;29;20071;-73
2021/01/30 14:18:17;;;;;;;12.43;5.07;;;;;;;6.33;86.58;97007.78;4929257;29;20440;-69
2021/01/30 14:20:43;;;;;;;8.32;3.83;;;;;;;6.27;87.02;97005.41;4934937;29;20027;-68
2021/01/30 14:23:08;;;;;;;9.85;3.25;;;;;;;6.31;86.38;97007.00;4934866;29;20389;-68
2021/01/30 14:25:34;;;;;;;4.78;2.45;;;;;;;6.36;88.42;97004.31;4934870;29;20024;-68
2021/01/30 14:27:59;;;;;;;8.63;2.88;;;;;;;6.24;87.14;97004.66;4934892;29;20028;-69
2021/01/30 14:30:26;;;;;;;10.63;3.15;;;;;;;6.16;87.05;96998.03;4924199;29;20119;-68
2021/01/30 14:32:52;;;;;;;12.35;5.18;;;;;;;6.23;85.96;96997.84;4915794;29;20167;-69
2021/01/30 14:35:17;;;;;;;51.03;22.25;;;;;;;6.21;87.48;96990.16;4915661;29;20099;-68
2021/01/30 14:37:43;;;;;;;9.35;5.70;;;;;;;6.22;87.69;96994.41;4895475;29;20140;-69
2021/01/30 14:40:09;;;;;;;7.80;2.50;;;;;;;6.24;85.25;96990.09;4896017;29;20028;-68
2021/01/30 14:42:35;;;;;;;5.82;1.30;;;;;;;6.19;84.64;96986.81;4896728;29;20513;-68
2021/01/30 14:45:02;;;;;;;2.88;1.42;;;;;;;6.10;84.95;96984.50;4896929;29;20032;-68
2021/01/30 14:47:27;;;;;;;2.03;1.40;;;;;;;6.06;85.87;96985.47;4907842;29;20389;-68
2021/01/30 14:49:53;;;;;;;3.40;1.30;;;;;;;6.08;88.05;96978.56;4915688;29;20151;-68
2021/01/30 14:52:18;;;;;;;2.78;1.45;;;;;;;6.06;86.88;96975.19;4915468;29;20032;-68
2021/01/30 14:54:43;;;;;;;8.60;2.38;;;;;;;6.04;88.16;96976.94;4914468;29;20103;-68
2021/01/30 14:57:09;;;;;;;5.55;2.60;;;;;;;6.05;87.59;96976.09;4915570;29;20032;-68
2021/01/30 14:59:34;;;;;;;9.55;2.20;;;;;;;6.02;87.42;96973.59;4915684;29;20069;-68
2021/01/30 15:02:00;;;;;;;6.55;1.90;;;;;;;6.02;88.90;96965.88;4915373;29;20485;-68
2021/01/30 15:04:26;;;;;;;4.72;1.83;;;;;;;5.99;87.79;96968.53;4915755;29;20033;-68
2021/01/30 15:06:51;;;;;;;9.43;4.32;;;;;;;5.99;88.73;96969.38;4915526;29;20478;-68
2021/01/30 15:09:17;;;;;;;13.77;5.93;;;;;;;5.99;89.24;96958.25;4915584;29;20072;-68
2021/01/30 15:11:43;;;;;;;10.80;4.82;;;;;;;5.99;90.73;96959.09;4915209;29;20024;-69
2021/01/30 15:14:08;;;;;;;11.27;5.35;;;;;;;5.98;90.24;96956.56;4914809;29;20071;-69
2021/01/30 15:16:33;;;;;;;9.32;4.45;;;;;;;5.94;90.28;96955.81;4901104;29;20017;-69
2021/01/30 15:18:59;;;;;;;8.10;4.00;;;;;;;5.89;90.75;96958.47;4914318;29;20386;-68
2021/01/30 15:21:25;;;;;;;12.10;3.50;;;;;;;5.78;90.51;96947.69;4915343;29;20124;-69
2021/01/30 15:23:51;;;;;;;5.05;2.75;;;;;;;5.74;90.47;96948.66;4915334;29;20039;-69
2021/01/30 15:26:17;;;;;;;11.63;3.47;;;;;;;5.73;91.68;96946.97;4915451;29;20475;-69
2021/01/30 15:28:42;;;;;;;8.07;3.22;;;;;;;5.77;91.35;96943.44;4915418;29;20039;-69
2021/01/30 15:31:07;;;;;;;11.88;3.45;;;;;;;5.73;91.15;96941.84;4915241;29;20066;-68
2021/01/30 15:33:33;;;;;;;10.43;4.75;;;;;;;5.67;91.29;96942.00;4915386;29;20116;-69
2021/01/30 15:35:58;;;;;;;16.50;4.75;;;;;;;5.67;92.14;96934.31;4915434;29;20445;-69
2021/01/30 15:38:23;;;;;;;6.35;2.47;;;;;;;5.63;91.80;96936.09;4915268;29;20040;-69
2021/01/30 15:40:49;;;;;;;8.60;3.50;;;;;;;5.59;91.98;96931.09;4913874;29;20028;-69
2021/01/30 15:43:14;;;;;;;7.88;3.35;;;;;;;5.59;92.54;96925.97;4915186;29;20386;-69
2021/01/30 15:45:40;;;;;;;7.35;3.40;;;;;;;5.60;92.51;96925.91;4907168;29;20032;-69
2021/01/30 15:48:05;;;;;;;7.45;3.15;;;;;;;5.56;92.75;96924.34;4908326;29;20028;-69
2021/01/30 15:50:31;;;;;;;5.68;2.42;;;;;;;5.52;93.16;96917.59;4915287;29;20040;-74
2021/01/30 15:52:59;;;;;;;8.90;3.13;;;;;;;5.53;93.75;96923.56;4918623;29;20060;-74
2021/01/30 15:55:24;;;;;;;5.50;2.42;;;;;;;5.48;92.67;96920.28;4918469;29;20043;-74
2021/01/30 15:57:50;;;;;;;6.22;3.28;;;;;;;5.40;93.29;96913.63;4918783;29;20028;-74
2021/01/30 16:00:21;;;;;;;9.52;3.45;;;;;;;5.49;93.72;96922.81;4918202;29;20030;-73
2021/01/30 16:02:47;;;;;;;6.07;2.85;;;;;;;5.53;93.69;96926.13;4918528;29;20028;-75
2021/01/30 16:05:13;;;;;;;7.45;3.47;;;;;;;5.46;94.28;96916.91;4918307;29;20387;-75
2021/01/30 16:07:38;;;;;;;6.10;3.55;;;;;;;5.43;94.67;96911.88;4918453;29;20137;-74
2021/01/30 16:10:06;;;;;;;5.38;3.80;;;;;;;5.47;94.65;96918.63;4918397;29;20027;-75
2021/01/30 16:12:32;;;;;;;7.43;3.33;;;;;;;5.43;94.62;96917.84;4916802;29;20457;-75
2021/01/30 16:14:57;;;;;;;15.85;7.20;;;;;;;5.36;94.03;96912.03;4910866;29;20173;-75
2021/01/30 16:17:23;;;;;;;10.20;4.88;;;;;;;5.32;95.07;96910.44;4910375;29;20039;-75
2021/01/30 16:19:48;;;;;;;10.52;4.47;;;;;;;5.33;95.13;96916.41;4918086;29;20035;-75
2021/01/30 16:22:15;;;;;;;10.60;5.10;;;;;;;5.29;95.09;96925.91;4917898;29;20028;-74
2021/01/30 16:24:40;;;;;;;8.55;4.93;;;;;;;5.28;94.57;96915.72;4917903;29;20080;-74
2021/01/30 16:27:06;;;;;;;11.90;4.90;;;;;;;5.21;94.93;96906.47;4916811;29;20031;-74
2021/01/30 16:29:33;;;;;;;8.43;4.72;;;;;;;5.19;95.00;96911.66;4918040;29;20032;-69
2021/01/30 16:31:59;;;;;;;6.35;3.33;;;;;;;5.22;94.79;96914.16;4917742;29;20024;-69
2021/01/30 16:34:24;;;;;;;10.70;3.67;;;;;;;5.16;95.00;96904.88;4917929;29;20359;-68
2021/01/30 16:36:50;;;;;;;5.75;2.60;;;;;;;5.13;94.55;96901.56;4918009;29;20079;-69
2021/01/30 16:39:15;;;;;;;4.75;2.65;;;;;;;5.06;94.37;96912.84;4918002;29;20055;-69
2021/01/30 16:41:41;;;;;;;6.57;2.75;;;;;;;5.07;95.03;96910.22;4917614;29;20434;-69
2021/01/30 16:44:06;;;;;;;5.85;2.70;;;;;;;5.07;94.49;96914.53;4917466;29;20028;-69
2021/01/30 16:46:31;;;;;;;10.02;3.50;;;;;;;5.03;94.85;96918.06;4903013;29;20035;-68
2021/01/30 16:48:57;;;;;;;7.45;3.20;;;;;;;4.96;94.18;96916.53;4917463;29;20024;-69
2021/01/30 16:51:22;;;;;;;7.35;2.67;;;;;;;5.01;94.06;96912.13;4917288;29;20028;-68
2021/01/30 16:53:47;;;;;;;6.47;3.28;;;;;;;4.94;94.16;96918.31;4917592;29;20446;-68
2021/01/30 16:56:13;;;;;;;6.95;3.50;;;;;;;4.89;94.13;96914.16;4917666;29;20032;-69
2021/01/30 16:58:42;;;;;;;9.60;3.65;;;;;;;4.87;93.60;96913.31;4917631;29;20036;-68
2021/01/30 17:01:11;;;;;;;12.95;4.70;;;;;;;4.89;94.36;96921.00;4917073;29;20028;-68
2021/01/30 17:03:36;;;;;;;8.00;4.00;;;;;;;4.90;93.82;96920.94;4916441;29;20074;-68
2021/01/30 17:06:02;;;;;;;9.95;4.10;;;;;;;4.93;94.08;96916.59;4917341;29;20525;-68
2021/01/30 17:08:27;;;;;;;10.10;4.60;;;;;;;4.86;94.23;96916.78;4917153;29;20028;-69
2021/01/30 17:10:53;;;;;;;8.35;3.58;;;;;;;4.88;94.74;96920.16;4917111;29;20030;-68
2021/01/30 17:13:18;;;;;;;7.30;4.22;;;;;;;4.87;94.64;96917.63;4917218;29;20039;-68
2021/01/30 17:15:43;;;;;;;9.95;4.00;;;;;;;4.88;94.39;96919.28;4908482;29;20489;-68
2021/01/30 17:18:09;;;;;;;13.82;6.22;;;;;;;4.92;93.56;96920.06;4910543;29;20032;-68
2021/01/30 17:20:35;;;;;;;42.97;14.77;;;;;;;4.85;94.14;96920.22;4916825;29;20069;-68
2021/01/30 17:23:01;;;;;;;40.45;14.07;;;;;;;4.85;94.15;96924.53;4916994;29;20055;-68
2021/01/30 17:25:27;;;;;;;13.10;6.93;;;;;;;4.82;93.94;96920.28;4917057;29;20123;-68
2021/01/30 17:27:53;;;;;;;12.57;7.07;;;;;;;4.80;93.24;96918.66;4916959;29;20039;-68
2021/01/30 17:30:20;;;;;;;10.38;7.65;;;;;;;4.77;93.57;96919.56;4916886;29;20020;-68
2021/01/30 17:32:45;;;;;;;16.40;8.82;;;;;;;4.80;93.77;96916.94;4916654;29;20396;-69
2021/01/30 17:35:11;;;;;;;7.50;4.50;;;;;;;4.76;93.50;96930.72;4916901;29;20024;-69
2021/01/30 17:37:37;;;;;;;9.30;4.22;;;;;;;4.71;93.02;96935.13;4916637;29;20039;-68
2021/01/30 17:40:04;;;;;;;8.15;4.43;;;;;;;4.72;91.75;96923.97;4916945;29;20028;-68
2021/01/30 17:42:29;;;;;;;5.82;3.47;;;;;;;4.69;92.25;96931.75;4916391;29;20115;-68
2021/01/30 17:44:55;;;;;;;6.38;3.50;;;;;;;4.61;92.86;96931.94;4909168;29;20080;-69
2021/01/30 17:47:20;;;;;;;4.25;3.45;;;;;;;4.60;92.00;96929.41;4908564;29;20028;-68
2021/01/30 17:49:45;;;;;;;3.78;2.92;;;;;;;4.60;91.49;96929.41;4916499;29;20031;-69
2021/01/30 17:52:10;;;;;;;5.20;3.90;;;;;;;4.58;92.54;96932.00;4916294;29;20024;-68
2021/01/30 17:54:36;;;;;;;8.02;5.03;;;;;;;4.60;92.10;96937.13;4916541;29;20099;-68
2021/01/30 17:57:02;;;;;;;7.57;5.18;;;;;;;4.55;92.70;96936.38;4916571;29;20115;-68
2021/01/30 17:59:27;;;;;;;7.20;4.38;;;;;;;4.55;91.83;96933.81;4916332;29;20027;-68
2021/01/30 18:01:53;;;;;;;7.05;5.65;;;;;;;4.53;92.62;96933.00;4916062;29;20119;-69
2021/01/30 18:04:18;;;;;;;7.13;5.18;;;;;;;4.50;92.59;96933.09;4916179;29;20119;-69
2021/01/30 18:06:43;;;;;;;5.90;4.57;;;;;;;4.52;93.26;96933.88;4916310;29;20034;-69
2021/01/30 18:09:11;;;;;;;6.68;5.13;;;;;;;4.49;93.63;96926.25;4916283;29;20107;-68
2021/01/30 18:11:36;;;;;;;5.93;4.35;;;;;;;4.52;92.66;96926.19;4916054;29;20035;-68
2021/01/30 18:14:03;;;;;;;8.65;4.78;;;;;;;4.47;93.06;96922.88;4915999;29;20028;-68
2021/01/30 18:16:28;;;;;;;8.10;5.75;;;;;;;4.49;92.94;96926.25;4901477;29;20031;-68
2021/01/30 18:18:54;;;;;;;6.75;4.75;;;;;;;4.51;93.06;96919.38;4915506;29;20028;-69
2021/01/30 18:21:19;;;;;;;9.90;6.00;;;;;;;4.50;93.21;96925.41;4915767;29;20035;-68
2021/01/30 18:23:45;;;;;;;10.77;7.13;;;;;;;4.58;93.70;96928.59;4916029;29;20058;-69
2021/01/30 18:26:11;;;;;;;14.32;7.63;;;;;;;4.49;92.68;96926.25;4915976;29;20051;-69
2021/01/30 18:28:36;;;;;;;9.68;5.72;;;;;;;4.52;92.93;96926.19;4915992;29;20107;-69
2021/01/30 18:31:02;;;;;;;10.20;6.45;;;;;;;4.52;92.87;96923.63;4915628;29;20036;-69
2021/01/30 18:33:27;;;;;;;10.68;5.72;;;;;;;4.52;93.45;96921.06;4915957;29;20055;-69
2021/01/30 18:35:53;;;;;;;5.93;5.20;;;;;;;4.58;92.55;96920.91;4915975;29;20610;-69
2021/01/30 18:38:19;;;;;;;8.65;5.15;;;;;;;4.51;92.61;96919.38;4930510;29;20032;-69
2021/01/30 18:40:45;;;;;;;12.82;6.25;;;;;;;4.51;92.66;96919.38;4915546;29;20497;-69
2021/01/30 18:43:11;;;;;;;7.45;4.97;;;;;;;4.48;92.69;96920.28;4915830;29;20036;-69
2021/01/30 18:45:39;;;;;;;8.02;5.30;;;;;;;4.52;92.59;96918.50;4907763;29;20047;-69